ソルトレイクシティ の空港の天気 - METARとTAF

ソルト・レーク・シティ国際空港 ( KSLC / SLC ) - アメリカ ユタ州ソルトレイクシティ
飛行場実況気象(Metar)
観測時間12/01 16:54 MST (12/01 23:54 UTC)
風向・風速西北西 5m/s
視程10km以上
天気現象
少しの雲 雲底高度 1830m
気温2.2℃
湿度54%
気圧1029.4hPa
METARKSLC 012354Z 29010KT 10SM FEW060 02/M06 A3036 RMK AO2 SLP294 T00221061 10044 20022 56004
過去の天気等 Google飛行場航空写真 Wunderground天気予報

過去48時間のMETAR

飛行場予報(TAF)
発表時間: 12/01 16:20 MST (12/01 23:20 UTC)
予報対象時間: 1日17時 MST ~ 2日23時 MST
風向・風速西北西 4m/s
視程10km以上
少しの雲 雲底高度 1830m
2日1時 MST から
風向・風速南東 2m/s
視程10km以上
なし
2日13時 MST から
風向・風速北北西 4m/s
視程10km以上
なし
2日18時 MST から
風向・風速南東 3m/s
視程10km以上
なし
KSLC 012320Z 0200/0306 29008KT P6SM FEW060
FM020800 13004KT P6SM SKC
FM022000 34008KT P6SM SKC
FM030100 13005KT P6SM SKC